Time;durP1;ratioP1;P1;durP2;ratioP2;P2;SDS_P1;SDS_P2;PMS_P1;PMS_P2;Temp;Humidity;BMP_temperature;BMP_pressure;BME280_temperature;BME280_humidity;BME280_pressure;Samples;Min_cycle;Max_cycle;Signal;HPM_P1;HPM_P2
2021/12/16 00:08:41;;;;;;;;;;;;;;;8.18;93.10;102730.72;4934527;28;20592;-78
2021/12/16 00:30:51;;;;;;;;;;;;;;;8.19;92.76;102748.25;4916369;28;19915;-79
2021/12/16 00:33:13;;;;;;;;;;;;;;;8.19;92.76;102732.44;4946882;27;19923;-76
2021/12/16 00:35:39;;;;;;;;;;;;;;;8.14;93.15;102735.28;4926358;27;20400;-77
2021/12/16 00:38:04;;;;;;;;;;;;;;;8.14;93.17;102735.28;4907884;27;20029;-78
2021/12/16 00:40:30;;;;;;;;;;;;;;;8.19;92.86;102738.59;4929849;27;19912;-78
2021/12/16 00:43:00;;;;;;;;;;;;;;;8.18;92.74;102730.72;4930592;28;19927;-78
2021/12/16 00:45:37;;;;;;;;;;;;;;;8.15;93.10;102734.38;4937820;27;19908;-79
2021/12/16 00:48:10;;;;;;;;;;;;;;;8.14;93.10;102730.03;4952201;27;19957;-79
2021/12/16 00:58:12;;;;;;;;;;;;;;;7.98;93.81;102747.47;4950135;27;20381;-78
2021/12/16 01:00:39;;;;;;;;;;;;;;;7.95;93.97;102734.44;4955187;27;20371;-78
2021/12/16 01:03:19;;;;;;;;;;;;;;;7.98;94.16;102740.44;4951698;27;19969;-77
2021/12/16 01:06:02;;;;;;;;;;;;;;;8.04;93.84;102745.41;4952614;27;19911;-77
2021/12/16 01:36:11;;;;;;;;;;;;;;;8.04;92.98;102758.59;4930243;28;20324;-78
2021/12/16 01:47:13;;;;;;;;;;;;;;;8.01;94.15;102763.16;4937391;28;20716;-78
2021/12/16 01:49:48;;;;;;;;;;;;;;;7.97;93.76;102766.88;4935759;28;19919;-79
2021/12/16 01:57:23;;;;;;;;;;;;;;;7.95;94.09;102777.47;4919074;28;20354;-80
2021/12/16 01:59:58;;;;;;;;;;;;;;;7.98;93.83;102766.81;4915069;28;20078;-78
2021/12/16 02:10:35;;;;;;;;;;;;;;;8.04;93.67;102781.50;4913607;28;19945;-78
2021/12/16 02:13:29;;;;;;;;;;;;;;;8.08;93.86;102772.50;4877736;28;19905;-78
2021/12/16 02:32:00;;;;;;;;;;;;;;;8.02;94.18;102764.88;4923493;28;20296;-79
2021/12/16 02:36:53;;;;;;;;;;;;;;;8.13;94.17;102764.38;4921885;28;19904;-78
2021/12/16 02:39:21;;;;;;;;;;;;;;;8.08;93.97;102767.25;4889981;28;19908;-78
2021/12/16 02:41:48;;;;;;;;;;;;;;;8.03;94.14;102767.44;4898635;28;20767;-78
2021/12/16 02:44:21;;;;;;;;;;;;;;;8.13;94.33;102761.75;4888651;28;19913;-80
2021/12/16 02:49:31;;;;;;;;;;;;;;;8.07;94.17;102761.09;4918175;28;20266;-78
2021/12/16 02:51:57;;;;;;;;;;;;;;;8.07;93.65;102761.09;4935075;28;20485;-78
2021/12/16 02:54:22;;;;;;;;;;;;;;;8.08;93.89;102772.50;4917372;28;19915;-78
2021/12/16 02:56:48;;;;;;;;;;;;;;;8.13;93.76;102773.13;4916384;28;19904;-78
2021/12/16 02:59:16;;;;;;;;;;;;;;;8.12;93.91;102767.94;4895613;28;20091;-79
2021/12/16 03:01:43;;;;;;;;;;;;;;;8.11;93.75;102772.38;4916013;28;20609;-78
2021/12/16 03:04:11;;;;;;;;;;;;;;;8.09;94.12;102779.47;4922557;28;19912;-81
2021/12/16 03:06:38;;;;;;;;;;;;;;;8.03;94.32;102774.50;4909998;28;20607;-78
2021/12/16 03:09:04;;;;;;;;;;;;;;;8.03;94.55;102775.34;4977928;28;19912;-79
2021/12/16 03:11:50;;;;;;;;;;;;;;;8.05;94.27;102777.91;4975014;28;20147;-78
2021/12/16 03:14:24;;;;;;;;;;;;;;;8.11;94.38;102776.75;4968960;28;20215;-78
2021/12/16 03:19:38;;;;;;;;;;;;;;;8.10;94.12;102781.19;4960754;28;20370;-79
2021/12/16 03:22:04;;;;;;;;;;;;;;;8.11;94.12;102775.00;4943860;28;20071;-78
2021/12/16 03:37:22;;;;;;;;;;;;;;;8.17;93.79;102779.97;4911770;28;20883;-78
2021/12/16 03:39:50;;;;;;;;;;;;;;;8.18;94.09;102776.44;4917295;28;19908;-79
2021/12/16 03:42:24;;;;;;;;;;;;;;;8.20;93.83;102786.91;4913013;28;19916;-78
2021/12/16 03:44:58;;;;;;;;;;;;;;;8.16;94.05;102786.19;4913534;28;19907;-78
2021/12/16 03:47:25;;;;;;;;;;;;;;;8.23;94.06;102779.72;4893468;28;20674;-78
2021/12/16 03:49:50;;;;;;;;;;;;;;;8.17;94.28;102777.34;4899083;28;20050;-78
2021/12/16 03:52:17;;;;;;;;;;;;;;;8.18;94.07;102783.47;4933960;28;20164;-80
2021/12/16 03:54:49;;;;;;;;;;;;;;;8.19;93.48;102786.06;4934044;27;20866;-78
2021/12/16 03:57:14;;;;;;;;;;;;;;;8.21;93.95;102778.91;4934297;27;19904;-78
2021/12/16 03:59:40;;;;;;;;;;;;;;;8.22;93.63;102785.03;4918547;27;19908;-78
2021/12/16 04:02:06;;;;;;;;;;;;;;;8.22;93.72;102785.91;4921514;27;19978;-79
2021/12/16 04:04:31;;;;;;;;;;;;;;;8.19;93.51;102791.34;4938624;27;20555;-78
2021/12/16 04:06:57;;;;;;;;;;;;;;;8.10;93.41;102796.16;4922497;27;20792;-78
2021/12/16 04:09:22;;;;;;;;;;;;;;;8.11;93.38;102798.75;4936681;27;20226;-78
2021/12/16 04:11:55;;;;;;;;;;;;;;;8.16;93.56;102804.63;4960395;27;20334;-78
2021/12/16 04:14:21;;;;;;;;;;;;;;;8.06;93.59;102795.44;4929488;27;19957;-78
2021/12/16 04:16:50;;;;;;;;;;;;;;;7.99;94.30;102799.28;4940455;27;20371;-81
2021/12/16 04:19:17;;;;;;;;;;;;;;;8.03;94.24;102803.50;4975010;27;19903;-78
2021/12/16 04:21:43;;;;;;;;;;;;;;;8.03;94.02;102795.59;4959024;27;20634;-78
2021/12/16 04:24:09;;;;;;;;;;;;;;;8.09;94.39;102805.84;4958650;27;20613;-78
2021/12/16 04:26:35;;;;;;;;;;;;;;;8.11;93.78;102809.28;4964788;27;20083;-78
2021/12/16 04:29:00;;;;;;;;;;;;;;;8.09;93.95;102805.84;4980154;27;19908;-78
2021/12/16 04:31:25;;;;;;;;;;;;;;;8.06;93.73;102800.72;4962870;27;19946;-78
2021/12/16 04:33:51;;;;;;;;;;;;;;;8.00;94.39;102801.00;4967577;27;20647;-79
2021/12/16 04:36:16;;;;;;;;;;;;;;;8.03;93.99;102806.97;4988617;27;20129;-78
2021/12/16 04:38:42;;;;;;;;;;;;;;;8.15;94.13;102795.03;4968726;27;20625;-78
2021/12/16 04:41:10;;;;;;;;;;;;;;;8.13;94.08;102796.03;4945461;27;20085;-78
2021/12/16 04:43:41;;;;;;;;;;;;;;;8.17;93.68;102816.06;4959106;27;20382;-78
2021/12/16 04:46:07;;;;;;;;;;;;;;;8.21;94.25;102805.28;4932867;28;19924;-79
2021/12/16 04:48:33;;;;;;;;;;;;;;;8.18;94.00;102816.00;4945106;28;20349;-78
2021/12/16 04:50:58;;;;;;;;;;;;;;;8.19;94.03;102817.72;4940237;28;20118;-78
2021/12/16 04:53:24;;;;;;;;;;;;;;;8.26;93.36;102820.91;4943552;28;20029;-78
2021/12/16 04:55:49;;;;;;;;;;;;;;;8.21;93.23;102815.00;4927763;28;19912;-77
2021/12/16 04:58:14;;;;;;;;;;;;;;;8.25;93.20;102819.22;4946450;28;20038;-79
2021/12/16 05:00:39;;;;;;;;;;;;;;;8.18;93.58;102823.91;4943155;28;19952;-78
2021/12/16 05:03:05;;;;;;;;;;;;;;;8.19;93.47;102822.09;4925851;28;19957;-77
2021/12/16 05:05:30;;;;;;;;;;;;;;;8.15;93.94;102815.25;4922607;28;19910;-78
2021/12/16 05:07:56;;;;;;;;;;;;;;;8.16;93.78;102820.47;4924954;28;20130;-78
2021/12/16 05:10:21;;;;;;;;;;;;;;;8.15;94.17;102824.03;4941409;27;21301;-79
2021/12/16 05:12:49;;;;;;;;;;;;;;;8.14;94.28;102824.13;4942686;28;19908;-78
2021/12/16 05:15:16;;;;;;;;;;;;;;;8.14;94.55;102817.03;4931925;27;20772;-78
2021/12/16 05:17:44;;;;;;;;;;;;;;;8.19;94.21;102817.72;4943963;28;19918;-78
2021/12/16 05:20:12;;;;;;;;;;;;;;;8.21;93.81;102810.56;4926162;27;20244;-78
2021/12/16 05:25:39;;;;;;;;;;;;;;;8.22;94.05;102804.38;4938652;27;19918;-77
2021/12/16 05:28:05;;;;;;;;;;;;;;;8.22;93.66;102807.00;4918052;28;19915;-76
2021/12/16 05:30:30;;;;;;;;;;;;;;;8.27;93.75;102803.31;4920852;28;19907;-76
2021/12/16 05:32:56;;;;;;;;;;;;;;;8.25;93.91;102814.78;4935115;28;19998;-76
2021/12/16 05:35:21;;;;;;;;;;;;;;;8.22;93.90;102816.69;4923485;27;20364;-77
2021/12/16 05:37:46;;;;;;;;;;;;;;;8.21;94.11;102815.84;4934133;28;20319;-76
2021/12/16 05:40:12;;;;;;;;;;;;;;;8.25;94.17;102824.47;4918632;28;19912;-77
2021/12/16 05:42:38;;;;;;;;;;;;;;;8.24;94.28;102831.53;4936600;27;19938;-76
2021/12/16 05:45:04;;;;;;;;;;;;;;;8.26;93.97;102836.72;4932573;27;19904;-76
2021/12/16 05:47:30;;;;;;;;;;;;;;;8.27;94.05;102830.53;4935899;27;20944;-78
2021/12/16 05:49:55;;;;;;;;;;;;;;;8.28;93.79;102841.94;4936942;28;19904;-76
2021/12/16 05:52:20;;;;;;;;;;;;;;;8.28;93.88;102844.56;4898294;28;19912;-79
2021/12/16 05:54:46;;;;;;;;;;;;;;;8.31;94.18;102837.38;4898828;28;20791;-77
2021/12/16 05:57:12;;;;;;;;;;;;;;;8.42;93.45;102844.81;4925153;27;19908;-76
2021/12/16 05:59:37;;;;;;;;;;;;;;;8.36;93.68;102845.06;4906959;28;19965;-76
2021/12/16 06:02:02;;;;;;;;;;;;;;;8.46;93.48;102850.81;4931057;27;20018;-76
2021/12/16 06:04:27;;;;;;;;;;;;;;;8.41;93.31;102861.56;4923422;27;20459;-75
2021/12/16 06:06:53;;;;;;;;;;;;;;;8.40;93.08;102863.34;4929061;28;19933;-76
2021/12/16 06:09:18;;;;;;;;;;;;;;;8.43;93.21;102862.31;4915770;28;20462;-76
2021/12/16 06:11:45;;;;;;;;;;;;;;;8.47;92.29;102868.38;4925189;28;20004;-77
2021/12/16 06:27:34;;;;;;;;;;;;;;;8.47;92.29;102873.66;4898787;28;20381;-77
2021/12/16 06:29:59;;;;;;;;;;;;;;;8.47;92.58;102887.69;4899840;28;20486;-78
2021/12/16 06:32:25;;;;;;;;;;;;;;;8.43;91.93;102884.31;4924116;28;19912;-77
2021/12/16 06:34:51;;;;;;;;;;;;;;;8.42;92.23;102885.22;4900645;28;19915;-77
2021/12/16 06:37:17;;;;;;;;;;;;;;;8.44;91.55;102893.06;4923724;27;19963;-77
2021/12/16 06:39:42;;;;;;;;;;;;;;;8.42;91.32;102887.88;4942830;27;19949;-77
2021/12/16 06:42:09;;;;;;;;;;;;;;;8.31;91.53;102891.94;4921026;27;19977;-80
2021/12/16 06:44:43;;;;;;;;;;;;;;;8.28;91.58;102884.13;4939675;27;20391;-78
2021/12/16 06:47:14;;;;;;;;;;;;;;;8.20;92.02;102895.88;4924528;27;19926;-77
2021/12/16 06:49:41;;;;;;;;;;;;;;;8.21;91.67;102891.47;4939376;27;19911;-79
2021/12/16 06:52:10;;;;;;;;;;;;;;;8.15;92.31;102889.97;4904751;28;20447;-79
2021/12/16 06:57:24;;;;;;;;;;;;;;;8.07;92.11;102892.09;4927106;28;20646;-77
2021/12/16 07:00:09;;;;;;;;;;;;;;;8.04;92.62;102892.22;4948713;27;20500;-77
2021/12/16 07:02:49;;;;;;;;;;;;;;;8.04;92.48;102894.88;4934372;27;20778;-77
2021/12/16 07:05:15;;;;;;;;;;;;;;;8.09;92.86;102895.50;4927554;28;20004;-77
2021/12/16 07:07:40;;;;;;;;;;;;;;;7.99;92.44;102894.19;4899196;28;20203;-78
2021/12/16 07:10:06;;;;;;;;;;;;;;;7.97;92.32;102896.06;4915536;27;20650;-77
2021/12/16 07:12:36;;;;;;;;;;;;;;;7.97;92.80;102906.59;4930050;27;20559;-77
2021/12/16 07:15:03;;;;;;;;;;;;;;;7.86;92.44;102907.06;4921629;28;20784;-78
2021/12/16 07:17:28;;;;;;;;;;;;;;;7.87;92.34;102911.41;4926714;28;19936;-77
2021/12/16 07:19:54;;;;;;;;;;;;;;;7.84;92.86;102904.50;4909997;28;19904;-76
2021/12/16 07:22:19;;;;;;;;;;;;;;;7.95;92.77;102918.97;4909788;28;19928;-77
2021/12/16 07:24:45;;;;;;;;;;;;;;;7.90;92.52;102917.41;4912376;28;20299;-77
2021/12/16 07:27:10;;;;;;;;;;;;;;;7.89;92.75;102923.56;4914964;28;20585;-76
2021/12/16 07:29:35;;;;;;;;;;;;;;;7.87;93.16;102937.78;4916323;28;20721;-80
2021/12/16 07:32:01;;;;;;;;;;;;;;;7.81;93.15;102933.63;4918252;28;19915;-79
2021/12/16 07:34:27;;;;;;;;;;;;;;;7.80;93.11;102945.06;4919930;28;19949;-79
2021/12/16 07:36:52;;;;;;;;;;;;;;;7.88;93.48;102942.97;4914994;28;20016;-78
2021/12/16 07:39:18;;;;;;;;;;;;;;;7.93;93.18;102947.19;4919502;28;20852;-78
2021/12/16 07:41:46;;;;;;;;;;;;;;;7.86;93.26;102952.72;4916602;28;20908;-77
2021/12/16 07:44:11;;;;;;;;;;;;;;;7.91;93.16;102950.75;4933522;28;20040;-80
2021/12/16 07:46:37;;;;;;;;;;;;;;;7.93;92.63;102963.03;4941360;28;20094;-80
2021/12/16 07:49:04;;;;;;;;;;;;;;;8.00;92.49;102956.56;4961052;27;19900;-80
2021/12/16 07:51:29;;;;;;;;;;;;;;;8.04;91.89;102968.69;4946738;28;20357;-79
2021/12/16 07:53:54;;;;;;;;;;;;;;;8.02;91.38;102975.78;4952783;27;20720;-78
2021/12/16 07:59:24;;;;;;;;;;;;;;;8.05;91.66;102976.53;4932824;28;20386;-78
2021/12/16 08:01:49;;;;;;;;;;;;;;;8.03;91.77;102962.53;4932840;28;20153;-78
2021/12/16 08:04:26;;;;;;;;;;;;;;;8.11;92.02;102967.50;4922621;28;19960;-80
2021/12/16 08:06:52;;;;;;;;;;;;;;;8.16;91.40;102973.41;4918408;28;19900;-80
2021/12/16 08:09:17;;;;;;;;;;;;;;;8.28;91.00;102966.78;4880025;28;19913;-79
2021/12/16 08:11:42;;;;;;;;;;;;;;;8.28;91.20;102984.38;4917508;28;20305;-77
2021/12/16 08:14:08;;;;;;;;;;;;;;;8.40;90.92;102973.28;4889584;28;20325;-77
2021/12/16 08:16:33;;;;;;;;;;;;;;;8.38;90.54;102978.63;4935779;28;20278;-78
2021/12/16 08:18:59;;;;;;;;;;;;;;;8.38;90.81;102976.00;4909950;28;19980;-78
2021/12/16 08:21:27;;;;;;;;;;;;;;;8.39;91.01;102985.63;4884678;28;19927;-81
2021/12/16 08:23:53;;;;;;;;;;;;;;;8.48;90.79;102989.66;4910374;28;19935;-78
2021/12/16 08:26:18;;;;;;;;;;;;;;;8.54;89.85;102989.38;4884501;28;20304;-78
2021/12/16 08:28:44;;;;;;;;;;;;;;;8.58;89.96;102990.97;4897575;28;20012;-80
2021/12/16 08:31:10;;;;;;;;;;;;;;;8.66;89.55;102992.41;4903016;28;20094;-79
2021/12/16 08:33:35;;;;;;;;;;;;;;;8.68;89.57;102988.78;4909797;28;20105;-78
2021/12/16 08:36:01;;;;;;;;;;;;;;;8.69;89.01;102992.28;4914984;28;20348;-78
2021/12/16 08:38:26;;;;;;;;;;;;;;;8.62;89.25;102983.78;4901712;28;20942;-80
2021/12/16 08:40:53;;;;;;;;;;;;;;;8.74;89.54;102992.91;4883146;28;20566;-80
2021/12/16 08:43:18;;;;;;;;;;;;;;;8.71;88.95;102986.00;4901555;28;19920;-80
2021/12/16 08:45:44;;;;;;;;;;;;;;;8.77;89.03;102992.78;4920418;28;20358;-79
2021/12/16 08:48:09;;;;;;;;;;;;;;;8.76;89.28;102997.22;4917465;28;20141;-78
2021/12/16 08:50:35;;;;;;;;;;;;;;;8.81;88.63;103004.91;4914887;28;19908;-80
2021/12/16 08:53:00;;;;;;;;;;;;;;;8.83;88.40;103010.16;4902336;28;20619;-80
2021/12/16 08:55:26;;;;;;;;;;;;;;;8.82;89.14;103006.63;4904331;28;19916;-80
2021/12/16 08:57:53;;;;;;;;;;;;;;;8.85;88.73;103006.50;4919707;28;20413;-80
2021/12/16 09:00:20;;;;;;;;;;;;;;;8.87;88.43;103011.69;4923070;28;20178;-81
2021/12/16 09:02:45;;;;;;;;;;;;;;;8.82;88.28;103006.63;4905802;28;19916;-81
2021/12/16 09:05:10;;;;;;;;;;;;;;;8.82;88.97;103014.56;4889151;28;19916;-80
2021/12/16 09:07:35;;;;;;;;;;;;;;;8.85;88.98;103027.63;4913077;28;20739;-80
2021/12/16 09:10:01;;;;;;;;;;;;;;;8.87;89.33;103038.09;4915537;28;19960;-79
2021/12/16 09:15:01;;;;;;;;;;;;;;;8.92;89.90;103031.69;4911605;28;19905;-80
2021/12/16 09:17:26;;;;;;;;;;;;;;;8.94;89.04;103043.06;4910601;28;19912;-80
2021/12/16 09:19:52;;;;;;;;;;;;;;;8.90;89.08;103049.41;4904171;28;19916;-79
2021/12/16 09:22:17;;;;;;;;;;;;;;;8.94;89.21;103058.91;4892953;28;19928;-79
2021/12/16 09:24:43;;;;;;;;;;;;;;;9.00;88.24;103055.13;4899332;28;20409;-80
2021/12/16 09:27:09;;;;;;;;;;;;;;;9.00;88.59;103062.19;4912416;28;19904;-79
2021/12/16 09:29:34;;;;;;;;;;;;;;;8.96;88.32;103060.63;4907178;28;19915;-79
2021/12/16 09:32:02;;;;;;;;;;;;;;;8.93;89.35;103057.19;4919587;28;19908;-80
2021/12/16 09:34:27;;;;;;;;;;;;;;;8.93;89.00;103062.47;4917091;28;20476;-80
2021/12/16 09:36:52;;;;;;;;;;;;;;;8.96;89.40;103063.25;4909916;28;20817;-79
2021/12/16 09:39:21;;;;;;;;;;;;;;;8.90;89.46;103067.03;4894073;28;19908;-79
2021/12/16 09:41:47;;;;;;;;;;;;;;;8.90;89.29;103073.16;4874716;28;20191;-80
2021/12/16 09:44:13;;;;;;;;;;;;;;;8.89;89.53;103070.59;4911851;28;20428;-79
2021/12/16 09:46:39;;;;;;;;;;;;;;;8.85;89.47;103075.13;4887551;28;19993;-79
2021/12/16 09:49:05;;;;;;;;;;;;;;;8.89;89.18;103074.09;4892240;28;20692;-79
2021/12/16 09:51:31;;;;;;;;;;;;;;;8.88;89.22;103079.44;4905032;28;20028;-79
2021/12/16 09:54:00;;;;;;;;;;;;;;;8.94;89.13;103080.03;4933339;28;19919;-79
2021/12/16 09:56:26;;;;;;;;;;;;;;;8.98;89.12;103075.44;4934337;27;20424;-79
2021/12/16 09:58:51;;;;;;;;;;;;;;;9.09;88.61;103085.53;4948714;27;20531;-80
2021/12/16 10:01:17;;;;;;;;;;;;;;;9.02;88.34;103076.19;4946987;27;19903;-79
2021/12/16 10:03:43;;;;;;;;;;;;;;;8.90;88.45;103083.72;4931491;27;19927;-78
2021/12/16 10:06:08;;;;;;;;;;;;;;;8.91;88.53;103081.94;4952009;27;19914;-79
2021/12/16 10:08:35;;;;;;;;;;;;;;;8.96;88.99;103073.81;4947738;27;20574;-79
2021/12/16 10:11:00;;;;;;;;;;;;;;;9.05;88.62;103082.19;4941443;27;20671;-79
2021/12/16 10:13:38;;;;;;;;;;;;;;;8.99;88.35;103078.97;4939325;27;19918;-80
2021/12/16 10:18:32;;;;;;;;;;;;;;;9.17;88.51;103064.06;4921772;28;20351;-79
2021/12/16 10:20:58;;;;;;;;;;;;;;;9.20;88.07;103064.78;4926510;28;20028;-79
2021/12/16 10:23:25;;;;;;;;;;;;;;;9.27;87.99;103068.00;4939086;27;20024;-79
2021/12/16 10:25:55;;;;;;;;;;;;;;;9.26;87.57;103061.00;4925176;27;20956;-79
2021/12/16 10:28:23;;;;;;;;;;;;;;;9.27;87.03;103057.44;4933457;27;20314;-80
2021/12/16 10:31:09;;;;;;;;;;;;;;;9.23;87.24;103059.34;4930205;27;19937;-80
2021/12/16 10:33:36;;;;;;;;;;;;;;;9.26;86.68;103053.94;4934457;27;19904;-80
2021/12/16 10:36:04;;;;;;;;;;;;;;;9.24;86.09;103047.84;4928525;27;20222;-80
2021/12/16 10:38:30;;;;;;;;;;;;;;;9.17;86.52;103046.44;4933055;27;20156;-80
2021/12/16 10:40:56;;;;;;;;;;;;;;;9.22;87.25;103060.28;4896648;27;19971;-80
2021/12/16 10:43:29;;;;;;;;;;;;;;;9.37;87.20;103048.13;4920576;27;20052;-79
2021/12/16 10:46:15;;;;;;;;;;;;;;;9.32;87.16;103057.22;4930904;27;19912;-79
2021/12/16 10:48:40;;;;;;;;;;;;;;;9.36;86.48;103053.50;4949950;27;19972;-79
2021/12/16 10:51:13;;;;;;;;;;;;;;;9.43;86.23;103044.34;4933492;27;20222;-80
2021/12/16 10:53:44;;;;;;;;;;;;;;;9.47;86.75;103053.84;4937596;27;19910;-80
2021/12/16 10:56:10;;;;;;;;;;;;;;;9.49;86.73;103052.00;4939570;27;19907;-81
2021/12/16 10:58:55;;;;;;;;;;;;;;;9.59;85.87;103055.91;4938512;27;19912;-79
2021/12/16 11:01:31;;;;;;;;;;;;;;;9.57;85.54;103062.19;4956023;27;19909;-80
2021/12/16 11:03:56;;;;;;;;;;;;;;;9.57;85.62;103056.91;4975818;27;20619;-79
2021/12/16 11:06:25;;;;;;;;;;;;;;;9.54;85.44;103057.91;4962212;27;19904;-79
2021/12/16 11:08:50;;;;;;;;;;;;;;;9.56;85.25;103061.34;4957682;27;19923;-79
2021/12/16 11:11:16;;;;;;;;;;;;;;;9.63;84.73;103062.78;4942832;27;19922;-79
2021/12/16 11:13:41;;;;;;;;;;;;;;;9.73;84.51;103057.91;4945171;27;19957;-78
2021/12/16 11:16:06;;;;;;;;;;;;;;;9.71;84.19;103058.91;4927085;28;20303;-78
2021/12/16 11:18:31;;;;;;;;;;;;;;;9.75;84.38;103060.47;4920426;28;20304;-78
2021/12/16 11:20:58;;;;;;;;;;;;;;;9.73;84.22;103057.91;4951822;27;19908;-79
2021/12/16 11:23:24;;;;;;;;;;;;;;;9.62;84.83;103061.03;4926611;27;19930;-79
2021/12/16 11:25:51;;;;;;;;;;;;;;;9.86;83.72;103066.09;4939216;27;19949;-79
2021/12/16 11:28:18;;;;;;;;;;;;;;;9.75;84.10;103073.69;4929613;27;19975;-80
2021/12/16 11:30:43;;;;;;;;;;;;;;;9.67;84.59;103070.56;4944127;27;19908;-80
2021/12/16 11:33:13;;;;;;;;;;;;;;;9.66;84.70;103076.75;4965672;27;19906;-82
2021/12/16 11:35:46;;;;;;;;;;;;;;;9.77;84.80;103079.75;4952235;27;20360;-78
2021/12/16 11:38:23;;;;;;;;;;;;;;;9.80;84.57;103066.41;4948828;27;19968;-80
2021/12/16 11:40:52;;;;;;;;;;;;;;;9.75;84.09;103068.41;4928041;28;20112;-78
2021/12/16 11:43:18;;;;;;;;;;;;;;;9.75;84.56;103076.34;4947917;27;19927;-81
2021/12/16 11:45:43;;;;;;;;;;;;;;;9.67;84.34;103083.78;4949162;27;20294;-81
2021/12/16 11:48:08;;;;;;;;;;;;;;;9.66;84.71;103075.00;4927084;27;19915;-81
2021/12/16 11:50:35;;;;;;;;;;;;;;;9.64;85.01;103074.19;4932663;28;20536;-81
2021/12/16 11:53:00;;;;;;;;;;;;;;;9.62;84.57;103068.97;4925356;28;19988;-79
2021/12/16 11:55:25;;;;;;;;;;;;;;;9.50;85.69;103069.56;4951893;27;21164;-78
2021/12/16 11:57:52;;;;;;;;;;;;;;;9.47;85.83;103082.91;4934959;27;20185;-79
2021/12/16 12:00:21;;;;;;;;;;;;;;;9.42;86.07;103066.44;4924620;28;19948;-79
2021/12/16 12:02:47;;;;;;;;;;;;;;;9.49;85.82;103064.34;4949499;27;20387;-79
2021/12/16 12:05:33;;;;;;;;;;;;;;;9.66;84.92;103058.25;4979774;27;19959;-80
2021/12/16 12:08:00;;;;;;;;;;;;;;;9.57;85.44;103057.75;4956285;27;20331;-79
2021/12/16 12:10:34;;;;;;;;;;;;;;;9.54;85.27;103068.47;4942487;27;19918;-79
2021/12/16 12:13:01;;;;;;;;;;;;;;;9.42;85.94;103069.09;4954531;27;19900;-81
2021/12/16 12:15:26;;;;;;;;;;;;;;;9.39;86.20;103061.28;4927429;27;20884;-80
2021/12/16 12:17:53;;;;;;;;;;;;;;;9.32;86.78;103058.09;4925716;28;19908;-79
2021/12/16 12:20:19;;;;;;;;;;;;;;;9.37;86.81;103057.88;4922966;27;20193;-80
2021/12/16 12:22:48;;;;;;;;;;;;;;;9.34;86.75;103056.22;4938267;27;19934;-79
2021/12/16 12:25:13;;;;;;;;;;;;;;;9.33;86.68;103061.56;4939768;27;19912;-80
2021/12/16 12:27:39;;;;;;;;;;;;;;;9.31;87.56;103066.94;4927067;27;19906;-79
2021/12/16 12:30:05;;;;;;;;;;;;;;;9.34;87.35;103055.38;4962599;27;20344;-80
2021/12/16 12:32:31;;;;;;;;;;;;;;;9.38;87.42;103052.50;4970308;27;19911;-79
2021/12/16 12:35:05;;;;;;;;;;;;;;;9.34;87.15;103060.66;4945857;27;19918;-80
2021/12/16 12:37:31;;;;;;;;;;;;;;;9.33;86.88;103058.94;4941085;27;20011;-79
2021/12/16 12:39:58;;;;;;;;;;;;;;;9.43;86.70;103060.22;4938193;27;19907;-79
2021/12/16 12:42:23;;;;;;;;;;;;;;;9.33;86.47;103064.22;4933031;28;19947;-80
2021/12/16 12:44:48;;;;;;;;;;;;;;;9.28;87.57;103052.06;4934255;28;19968;-78
2021/12/16 12:47:18;;;;;;;;;;;;;;;9.32;87.45;103054.56;4912152;28;20190;-79
2021/12/16 12:49:43;;;;;;;;;;;;;;;9.46;87.57;103065.34;4938051;28;20008;-79
2021/12/16 12:52:18;;;;;;;;;;;;;;;9.35;87.35;103067.63;4932197;28;20397;-79
2021/12/16 12:54:56;;;;;;;;;;;;;;;9.30;87.66;103067.00;4922537;28;20377;-80
2021/12/16 12:57:27;;;;;;;;;;;;;;;9.25;87.93;103068.06;4934342;28;19915;-80
2021/12/16 12:59:53;;;;;;;;;;;;;;;9.28;87.11;103062.63;4931834;28;19915;-78
2021/12/16 13:02:23;;;;;;;;;;;;;;;9.24;87.96;103068.16;4935926;28;20285;-78
2021/12/16 13:04:56;;;;;;;;;;;;;;;9.16;88.29;103070.28;4922182;28;19919;-79
2021/12/16 13:07:34;;;;;;;;;;;;;;;9.17;88.54;103064.06;4932355;28;20289;-79
2021/12/16 13:10:01;;;;;;;;;;;;;;;9.19;88.43;103062.22;4946404;28;19907;-81
2021/12/16 13:12:41;;;;;;;;;;;;;;;9.17;88.75;103070.19;4931310;28;19908;-81
2021/12/16 13:15:19;;;;;;;;;;;;;;;9.12;89.31;103061.63;4920320;27;20397;-80
2021/12/16 13:23:29;;;;;;;;;;;;;;;9.21;88.68;103061.22;4914269;28;19943;-83
2021/12/16 13:28:57;;;;;;;;;;;;;;;9.17;88.37;103062.28;4950108;27;19930;-84
2021/12/16 13:31:32;;;;;;;;;;;;;;;9.20;88.90;103064.78;4958876;27;20293;-81
2021/12/16 13:34:00;;;;;;;;;;;;;;;9.19;89.03;103059.56;4989728;27;20717;-82
2021/12/16 13:36:40;;;;;;;;;;;;;;;9.18;88.46;103061.34;4931429;28;19912;-83
2021/12/16 13:39:19;;;;;;;;;;;;;;;9.19;88.08;103060.41;4912816;28;20439;-80
2021/12/16 13:41:54;;;;;;;;;;;;;;;9.22;88.07;103064.69;4934738;28;20333;-82
2021/12/16 13:44:19;;;;;;;;;;;;;;;9.26;87.85;103064.50;4929036;28;20447;-82
2021/12/16 13:46:59;;;;;;;;;;;;;;;9.25;87.23;103067.19;4932599;28;19934;-82
2021/12/16 14:03:24;;;;;;;;;;;;;;;9.18;88.01;103098.34;4962422;27;20224;-80
2021/12/16 14:08:40;;;;;;;;;;;;;;;9.23;87.45;103098.13;4940667;27;19952;-82
2021/12/16 14:11:38;;;;;;;;;;;;;;;9.24;86.80;103100.69;4931749;27;20165;-81
2021/12/16 14:24:44;;;;;;;;;;;;;;;9.22;87.32;103094.63;4958982;27;20353;-82
2021/12/16 14:27:22;;;;;;;;;;;;;;;9.24;87.22;103092.78;4944691;27;20047;-82
2021/12/16 14:38:04;;;;;;;;;;;;;;;9.16;87.89;103080.84;4942413;27;19975;-81
2021/12/16 14:43:36;;;;;;;;;;;;;;;9.16;87.46;103091.41;4904706;27;19928;-81
2021/12/16 14:46:04;;;;;;;;;;;;;;;9.21;87.42;103092.06;4932476;27;19959;-82
2021/12/16 14:48:35;;;;;;;;;;;;;;;9.17;87.47;103093.97;4947120;27;20265;-82
2021/12/16 14:51:11;;;;;;;;;;;;;;;9.20;87.41;103091.19;4965172;27;20320;-82
2021/12/16 14:53:40;;;;;;;;;;;;;;;9.21;87.30;103100.00;4950584;27;20021;-81
2021/12/16 14:56:23;;;;;;;;;;;;;;;9.10;87.42;103093.38;4950298;27;19908;-80
2021/12/16 14:58:53;;;;;;;;;;;;;;;9.12;87.50;103103.88;4946940;27;20385;-82
2021/12/16 15:01:20;;;;;;;;;;;;;;;9.12;87.73;103095.97;4948870;27;20311;-81
2021/12/16 15:03:46;;;;;;;;;;;;;;;9.13;87.74;103099.47;4951034;27;20140;-81
2021/12/16 15:06:15;;;;;;;;;;;;;;;9.08;87.70;103092.63;4949074;27;19968;-81
2021/12/16 15:08:47;;;;;;;;;;;;;;;9.04;88.13;103090.16;4947062;27;20179;-81
2021/12/16 15:11:14;;;;;;;;;;;;;;;9.11;87.84;103097.75;4946201;27;20001;-82
2021/12/16 15:13:47;;;;;;;;;;;;;;;9.12;87.53;103088.03;4940933;27;19915;-81
2021/12/16 15:16:36;;;;;;;;;;;;;;;9.07;87.97;103093.53;4966027;27;20351;-81
2021/12/16 15:38:19;;;;;;;;;;;;;;;9.00;88.30;103083.31;4936018;27;19948;-79
2021/12/16 15:43:19;;;;;;;;;;;;;;;8.94;88.39;103089.75;4943350;27;20410;-79
2021/12/16 15:45:46;;;;;;;;;;;;;;;8.96;88.91;103084.38;4925910;27;20268;-80
2021/12/16 15:48:16;;;;;;;;;;;;;;;9.02;88.90;103092.88;4952076;27;20926;-79
2021/12/16 15:50:46;;;;;;;;;;;;;;;9.02;88.33;103092.88;4960574;27;19904;-80
2021/12/16 15:53:14;;;;;;;;;;;;;;;9.03;88.84;103104.31;4958810;27;19914;-82
2021/12/16 15:55:40;;;;;;;;;;;;;;;8.99;88.97;103102.72;4938091;27;20398;-81
2021/12/16 15:58:06;;;;;;;;;;;;;;;8.98;88.81;103101.00;4964513;27;19921;-81
2021/12/16 16:00:31;;;;;;;;;;;;;;;8.96;88.69;103103.72;4952237;27;19916;-80
2021/12/16 16:02:57;;;;;;;;;;;;;;;8.88;89.31;103101.44;4933646;28;20428;-80
2021/12/16 16:05:22;;;;;;;;;;;;;;;8.88;89.29;103112.00;4919066;28;19916;-80
2021/12/16 16:07:48;;;;;;;;;;;;;;;8.92;89.24;103102.97;4919954;28;20257;-80
2021/12/16 16:10:15;;;;;;;;;;;;;;;8.91;89.26;103103.94;4923888;27;19907;-79
2021/12/16 16:12:40;;;;;;;;;;;;;;;8.88;89.37;103112.00;4931715;27;19916;-79
2021/12/16 16:15:24;;;;;;;;;;;;;;;8.91;89.94;103110.97;4923336;27;20299;-80
2021/12/16 16:20:34;;;;;;;;;;;;;;;8.90;89.61;103104.00;4949306;27;20059;-80
2021/12/16 16:23:06;;;;;;;;;;;;;;;8.83;89.82;103116.59;4935564;27;20483;-80
2021/12/16 16:25:32;;;;;;;;;;;;;;;8.84;90.24;103114.81;4911655;27;20686;-81
2021/12/16 16:27:58;;;;;;;;;;;;;;;8.83;90.41;103113.13;4923944;27;19908;-80
2021/12/16 16:30:24;;;;;;;;;;;;;;;8.77;90.37;103115.09;4930075;27;19907;-81
2021/12/16 16:33:00;;;;;;;;;;;;;;;8.83;89.91;103116.59;4915041;28;19919;-80